Terminal Aerodrome Forecast
Issued by NWS Charleston, SC

Current Version | Previous Version | Text Only | Print | Product List | Glossary On
Versions: 1 2 3 4 5 6 7 8 9 10 11 12 13 14
691
FTUS42 KCHS 121908 AAA
TAFCHS
TAF AMD
KCHS 121908Z 1219/1318 VRB04KT P6SM -DZ BKN011 OVC014
     FM122300 30007KT P6SM SCT050
     FM130800 33009KT P6SM SKC
     FM131500 35012G20KT P6SM SKC=

USA.gov is the U.S. government's official web portal to all federal, state and local government web resources and services.